DW9580 Weather Reports


time (UTC)temp
C
wind
direction
speed
KPH
gust
KPH
rain 1hr
cm
rain 24hr
cm
rain mn
cm
humidity
%
barometer
mb
20200227122207 2 78 1.6 8.0 0.13 0.36 0.20 90 991.5
20200227121706 2 64 0.0 8.0 0.10 0.36 0.20 89 991.8
20200227121206 2 72 0.0 8.0 0.10 0.33 0.20 89 992.1
20200227120715 2 56 0.0 8.0 0.10 0.33 0.18 89 992.3
20200227120206 2 63 0.0 4.8 0.10 0.33 0.18 89 992.5
20200227115706 2 53 0.0 4.8 0.08 0.33 0.18 88 992.7
20200227115207 2 57 0.0 4.8 0.08 0.33 0.15 88 992.9
20200227114708 2 80 0.0 8.0 0.03 0.33 0.15 88 993.2
20200227114206 2 134 0.0 8.0 0.03 0.28 0.10 87 993.3
20200227113706 2 125 0.0 8.0 0.03 0.28 0.10 87 993.5
20200227113208 3 125 0.0 8.0 0.03 0.28 0.10 87 993.7
20200227112732 3 123 0.0 11.3 0.00 0.28 0.10 86 993.8
20200227112206 3 136 0.0 11.3 0.00 0.25 0.08 86 994.0
20200227111706 3 136 0.0 11.3 0.00 0.25 0.08 86 994.1
20200227111221 3 123 0.0 11.3 0.00 0.25 0.08 86 994.2
20200227110706 3 134 0.0 11.3 0.00 0.28 0.08 85 994.4
20200227110251 3 134 0.0 11.3 0.00 0.28 0.08 85 994.6
20200227083705 3 160 8.0 24.1 0.00 0.41 0.08 83 999.2
20200227083207 3 170 8.0 24.1 0.00 0.41 0.08 83 999.2
20200227082709 3 184 8.0 20.9 0.00 0.41 0.08 83 999.4
20200227082209 2 188 9.7 20.9 0.00 0.43 0.08 84 999.5
20200227081706 2 168 11.3 20.9 0.00 0.43 0.08 84 999.6
20200227081206 2 184 11.3 19.3 0.00 0.43 0.08 84 999.7
20200227080707 2 175 9.7 17.7 0.00 0.43 0.08 84 999.8
20200227080206 2 180 9.7 17.7 0.00 0.43 0.08 84 999.9
20200227075719 2 178 8.0 19.3 0.00 0.43 0.08 84 1000.0
20200227075207 2 194 9.7 19.3 0.00 0.43 0.08 84 1000.0
20200227074706 2 168 9.7 24.1 0.00 0.43 0.08 84 1000.1
20200227074206 2 185 9.7 24.1 0.00 0.46 0.08 85 1000.3
20200227073707 2 178 9.7 27.4 0.00 0.46 0.08 85 1000.4
20200227073206 2 189 8.0 27.4 0.00 0.46 0.08 85 1000.4
20200227072716 2 196 8.0 16.1 0.00 0.48 0.08 85 1000.5
20200227072206 2 163 4.8 16.1 0.00 0.48 0.08 86 1000.6
20200227071706 2 182 4.8 14.5 0.00 0.48 0.08 86 1000.6
20200227071207 2 182 8.0 17.7 0.00 0.48 0.08 86 1000.7
20200227070705 2 191 8.0 17.7 0.00 0.48 0.08 86 1000.8
20200227070207 2 169 6.4 17.7 0.00 0.48 0.08 86 1000.9
20200227065705 2 178 6.4 14.5 0.00 0.48 0.08 86 1000.9
20200227065209 2 180 6.4 14.5 0.00 0.48 0.08 86 1001.0
20200227064706 2 185 6.4 14.5 0.00 0.48 0.08 86 1001.1
20200227064206 2 201 8.0 14.5 0.00 0.48 0.08 86 1001.1
20200227063706 2 186 8.0 17.7 0.00 0.48 0.08 87 1001.3
20200227063206 2 182 6.4 17.7 0.00 0.48 0.08 87 1001.3
20200227062706 2 179 6.4 17.7 0.00 0.48 0.08 87 1001.3
20200227062212 2 194 8.0 19.3 0.00 0.48 0.08 87 1001.4
20200227061716 2 217 9.7 19.3 0.00 0.48 0.08 87 1001.5
20200227061206 2 190 9.7 24.1 0.00 0.48 0.08 87 1001.6
20200227060706 2 187 9.7 24.1 0.00 0.48 0.08 87 1001.7
20200227060206 2 201 9.7 19.3 0.00 0.48 0.08 88 1001.8
20200227055705 2 184 11.3 19.3 0.00 0.51 0.08 88 1001.9
20200227055206 2 194 9.7 17.7 0.03 0.51 0.08 88 1001.9
20200227054726 2 180 9.7 19.3 0.03 0.51 0.08 88 1002.1
20200227054206 2 187 9.7 19.3 0.03 0.51 0.08 88 1002.1
20200227053720 2 190 8.0 19.3 0.03 0.51 0.08 89 1002.2
20200227053215 2 182 6.4 17.7 0.03 0.51 0.08 89 1002.3
20200227052716 1 179 6.4 20.9 0.03 0.53 0.08 89 1002.4
20200227052207 1 199 8.0 20.9 0.03 0.53 0.08 89 1002.5
20200227051706 1 215 6.4 16.1 0.03 0.53 0.08 89 1002.6
20200227051206 1 199 4.8 16.1 0.03 0.53 0.08 90 1002.7
20200227050705 1 191 4.8 12.9 0.03 0.56 0.08 90 1002.7
20200227050206 1 187 4.8 14.5 0.03 0.58 0.08 90 1002.8
20200227045729 1 184 4.8 14.5 0.03 0.58 0.05 90 1002.9
20200227045206 1 184 4.8 14.5 0.00 0.58 0.05 90 1003.0
20200227044706 1 185 4.8 14.5 0.00 0.58 0.05 90 1003.1
20200227044206 1 192 3.2 11.3 0.00 0.58 0.05 90 1003.1
20200227043712 1 214 1.6 11.3 0.00 0.58 0.05 90 1003.2
20200227043205 1 221 1.6 9.7 0.00 0.58 0.05 90 1003.4
20200227042709 1 225 1.6 9.7 0.00 0.58 0.05 90 1003.4
20200227042207 1 234 1.6 8.0 0.00 0.58 0.05 91 1003.5
20200227041705 1 235 0.0 8.0 0.00 0.58 0.05 91 1003.5
20200227041206 1 235 0.0 8.0 0.00 0.58 0.05 91 1003.6
20200227040707 1 236 0.0 8.0 0.00 0.58 0.05 91 1003.6
20200227040206 1 236 1.6 6.4 0.00 0.58 0.05 91 1003.6
20200227035705 1 236 1.6 6.4 0.00 0.58 0.05 91 1003.7
20200227035206 1 237 1.6 9.7 0.00 0.58 0.05 91 1003.7
20200227034706 1 238 1.6 9.7 0.00 0.58 0.05 91 1003.8
20200227034205 1 238 1.6 9.7 0.00 0.58 0.05 91 1003.9
20200227033706 1 242 1.6 11.3 0.00 0.58 0.05 91 1003.9
20200227033206 1 242 1.6 19.3 0.00 0.58 0.05 91 1004.0
20200227032713 1 244 3.2 19.3 0.00 0.58 0.05 91 1004.0
20200227032206 1 236 4.8 19.3 0.00 0.58 0.05 91 1004.1
20200227031706 1 240 4.8 12.9 0.00 0.58 0.05 91 1004.3
20200227031206 1 233 3.2 9.7 0.00 0.58 0.05 91 1004.3
20200227030710 1 234 3.2 9.7 0.00 0.58 0.05 91 1004.3
20200227030205 1 234 3.2 12.9 0.00 0.58 0.05 91 1004.3
20200227025720 1 234 4.8 12.9 0.00 0.58 0.05 91 1004.3
20200227025213 1 239 4.8 12.9 0.03 0.58 0.05 91 1004.5
20200227024706 1 241 4.8 12.9 0.05 0.58 0.05 92 1004.5
20200227024205 1 227 4.8 8.0 0.05 0.58 0.05 91 1004.6
20200227023713 1 227 4.8 9.7 0.05 0.58 0.05 91 1004.7
20200227023206 1 232 3.2 9.7 0.05 0.58 0.05 91 1004.7
20200227022708 1 231 4.8 9.7 0.05 0.58 0.05 91 1004.8
20200227022206 1 229 3.2 9.7 0.05 0.58 0.05 91 1004.8
20200227021709 1 232 3.2 9.7 0.05 0.58 0.05 91 1004.9
20200227021206 1 240 3.2 14.5 0.05 0.58 0.05 91 1004.9
20200227020709 1 242 3.2 14.5 0.05 0.58 0.05 91 1005.0
20200227020206 1 242 3.2 12.9 0.05 0.58 0.05 91 1005.2
20200227015734 1 260 4.8 16.1 0.05 0.56 0.05 90 1005.2
20200227015206 1 260 6.4 16.1 0.05 0.56 0.05 90 1005.3
20200227014713 1 245 8.0 20.9 0.00 0.51 0.00 90 1005.3
20200227014206 2 243 8.0 20.9 0.00 0.51 0.00 90 1005.2
20200227013706 2 246 8.0 20.9 0.00 0.51 0.00 90 1005.2
20200227013206 2 248 9.7 20.9 0.00 0.51 0.00 90 1005.2
20200227012706 2 240 9.7 20.9 0.00 0.51 0.00 90 1005.2
20200227012206 2 237 8.0 20.9 0.00 0.51 0.00 90 1005.1
20200227011706 2 248 8.0 20.9 0.00 0.51 0.00 89 1005.1
20200227011206 2 229 8.0 20.9 0.00 0.51 0.00 90 1005.0
20200227010709 2 234 8.0 19.3 0.00 0.51 0.00 89 1005.1
20200227010206 2 236 8.0 19.3 0.00 0.51 0.00 90 1005.1
20200227005705 2 254 8.0 16.1 0.00 0.51 0.00 90 1005.1
20200227005206 2 241 6.4 16.1 0.00 0.51 0.00 90 1005.2
20200227004706 2 250 4.8 16.1 0.00 0.51 0.00 90 1005.2
20200227004206 2 250 4.8 16.1 0.00 0.51 0.00 89 1005.2
20200227003714 2 240 4.8 14.5 0.00 0.51 0.00 89 1005.1
20200227003207 2 239 4.8 16.1 0.00 0.51 0.00 89 1005.1
20200227002706 2 246 4.8 16.1 0.00 0.51 0.00 89 1005.1
20200227002206 2 248 6.4 16.1 0.00 0.53 0.00 89 1005.1
20200227001721 2 246 6.4 12.9 0.00 0.53 0.00 89 1005.1
20200227001209 2 229 4.8 12.9 0.00 0.53 0.00 89 1005.0
20200227000715 2 237 4.8 12.9 0.00 0.53 0.00 89 1004.9
20200227000206 2 242 4.8 14.5 0.00 0.53 0.00 89 1005.1
20200226235715 2 243 6.4 14.5 0.00 0.53 0.00 89 1005.1
20200226235206 2 244 6.4 14.5 0.00 0.53 0.00 89 1005.0
20200226234715 2 248 6.4 17.7 0.00 0.53 0.00 89 1005.0
20200226234206 2 251 6.4 17.7 0.00 0.53 0.00 89 1005.0
20200226233725 2 253 8.0 16.1 0.00 0.53 0.00 89 1005.0
20200226233206 2 248 6.4 16.1 0.00 0.53 0.00 89 1005.0
20200226232730 2 242 6.4 16.1 0.00 0.53 0.00 89 1005.0
20200226232206 2 257 6.4 17.7 0.03 0.53 0.00 89 1005.0
20200226231706 2 248 8.0 17.7 0.05 0.53 0.00 89 1005.1
20200226231206 2 244 8.0 17.7 0.05 0.53 0.00 89 1005.1
20200226230707 2 240 8.0 16.1 0.05 0.53 0.00 90 1005.1
20200226230206 2 243 8.0 16.1 0.05 0.53 0.53 90 1005.1
20200226225706 2 248 8.0 16.1 0.05 0.53 0.53 90 1005.1
20200226225206 2 242 8.0 16.1 0.05 0.53 0.53 90 1005.1
20200226224716 2 240 6.4 14.5 0.05 0.53 0.53 90 1005.2
20200226224206 2 249 6.4 14.5 0.05 0.53 0.53 90 1005.2
20200226223717 2 247 6.4 17.7 0.05 0.56 0.53 90 1005.3
20200226223213 2 250 6.4 19.3 0.05 0.56 0.53 90 1005.2
20200226222709 2 259 9.7 20.9 0.05 0.61 0.51 90 1005.3
20200226222211 2 267 9.7 20.9 0.05 0.61 0.51 90 1005.4
20200226221706 2 246 6.4 20.9 0.05 0.61 0.51 90 1005.5
20200226221206 2 253 4.8 12.9 0.05 0.64 0.51 90 1005.5
20200226220706 2 252 4.8 11.3 0.08 0.66 0.51 91 1005.4
20200226220206 2 252 4.8 14.5 0.10 0.69 0.51 91 1005.4
20200226215708 2 248 4.8 14.5 0.10 0.69 0.51 91 1005.3
20200226215206 2 247 6.4 16.1 0.10 0.69 0.51 90 1005.2
20200226214707 2 249 6.4 16.1 0.10 0.69 0.51 91 1005.2
20200226214209 2 250 6.4 16.1 0.10 0.69 0.51 91 1005.2
20200226213708 1 240 6.4 12.9 0.10 0.69 0.51 90 1005.1
20200226213209 1 229 4.8 12.9 0.10 0.66 0.48 90 1005.1
20200226212706 1 214 4.8 17.7 0.08 0.66 0.48 90 1005.1
20200226212207 1 225 8.0 20.9 0.05 0.64 0.46 89 1005.1
20200226211712 1 247 11.3 22.5 0.05 0.64 0.46 89 1005.2
20200226211206 2 246 12.9 24.1 0.05 0.61 0.43 89 1005.3
20200226210720 2 257 12.9 24.1 0.03 0.61 0.43 89 1005.2
20200226210206 2 256 11.3 24.1 0.00 0.58 0.41 90 1005.3
20200226205713 2 258 9.7 20.9 0.00 0.58 0.41 90 1005.2
20200226205206 2 244 8.0 20.9 0.00 0.58 0.41 90 1005.0
20200226204732 2 242 8.0 16.1 0.00 0.58 0.41 90 1005.1
20200226204210 2 244 8.0 16.1 0.00 0.58 0.41 90 1005.1
20200226203705 2 261 8.0 20.9 0.00 0.58 0.41 90 1005.1
20200226203208 2 217 8.0 20.9 0.00 0.58 0.41 90 1005.0
20200226202728 2 218 8.0 20.9 0.00 0.58 0.41 90 1004.9
20200226202206 2 240 9.7 19.3 0.00 0.58 0.41 90 1005.0
20200226201707 2 241 11.3 24.1 0.00 0.58 0.41 91 1004.9
20200226201208 2 257 11.3 24.1 0.00 0.58 0.41 91 1004.9
20200226200712 2 254 11.3 24.1 0.00 0.58 0.41 91 1004.8
20200226200206 2 242 8.0 19.3 0.00 0.58 0.41 91 1004.8
20200226195712 2 210 6.4 16.1 0.00 0.58 0.41 90 1004.7
20200226195215 2 248 8.0 20.9 0.00 0.58 0.41 90 1004.6
20200226194706 2 249 11.3 20.9 0.00 0.58 0.41 90 1004.7
20200226194206 2 242 12.9 20.9 0.00 0.58 0.41 90 1004.7
20200226193708 2 246 12.9 22.5 0.00 0.58 0.41 90 1004.7
20200226193207 2 233 12.9 22.5 0.00 0.58 0.41 90 1004.7
20200226192729 2 252 12.9 19.3 0.00 0.58 0.41 90 1004.7
20200226192207 2 241 12.9 20.9 0.00 0.58 0.41 90 1004.7
20200226191706 2 259 14.5 20.9 0.00 0.58 0.41 90 1004.7
20200226191206 2 257 14.5 22.5 0.00 0.58 0.41 90 1004.8
20200226190707 2 264 12.9 22.5 0.03 0.58 0.41 90 1004.7
20200226190205 2 245 11.3 24.1 0.03 0.58 0.41 90 1004.6
20200226185716 2 266 11.3 24.1 0.03 0.58 0.41 91 1004.6
20200226185214 2 258 11.3 24.1 0.03 0.58 0.41 91 1004.6
20200226184710 2 234 9.7 19.3 0.03 0.58 0.41 91 1004.5
20200226184206 2 226 9.7 20.9 0.03 0.58 0.41 91 1004.5
20200226183714 2 236 9.7 20.9 0.03 0.58 0.41 91 1004.5
20200226183208 2 252 11.3 20.9 0.03 0.58 0.41 91 1004.5
20200226182720 2 247 11.3 20.9 0.03 0.58 0.41 91 1004.4
20200226182206 2 257 11.3 22.5 0.03 0.58 0.41 90 1004.4
20200226181706 2 263 11.3 22.5 0.03 0.58 0.41 90 1004.4
20200226181206 2 256 11.3 22.5 0.03 0.58 0.41 90 1004.4
20200226180726 2 254 11.3 24.1 0.00 0.56 0.38 90 1004.4
20200226180206 2 262 11.3 24.1 0.00 0.56 0.38 90 1004.1
20200226175722 2 254 12.9 24.1 0.00 0.56 0.38 90 1004.0
20200226175206 2 250 11.3 20.9 0.00 0.58 0.38 90 1004.0
20200226174705 2 217 11.3 22.5 0.00 0.58 0.38 90 1003.8
20200226174209 2 250 12.9 22.5 0.00 0.61 0.38 90 1003.7
20200226173706 2 259 12.9 25.7 0.00 0.61 0.38 90 1003.7
20200226173207 2 263 14.5 25.7 0.00 0.61 0.38 90 1003.7
20200226172706 2 263 12.9 25.7 0.00 0.61 0.38 90 1003.6
20200226172206 2 254 9.7 19.3 0.00 0.64 0.38 90 1003.6
20200226171713 2 256 8.0 19.3 0.00 0.66 0.38 89 1003.5
20200226171206 2 249 9.7 19.3 0.00 0.71 0.38 89 1003.4
20200226170706 2 258 12.9 22.5 0.00 0.76 0.38 89 1003.4
20200226170206 2 253 12.9 29.0 0.00 0.79 0.38 89 1003.2
20200226165734 2 250 14.5 29.0 0.00 0.84 0.38 89 1003.1
20200226165206 2 261 14.5 29.0 0.00 0.89 0.38 89 1003.0
20200226164708 2 251 14.5 27.4 0.00 0.89 0.38 89 1002.9
20200226164206 2 298 16.1 27.4 0.00 0.89 0.38 88 1002.8
20200226163706 2 261 14.5 25.7 0.00 0.89 0.38 88 1002.7
20200226163207 2 257 14.5 25.7 0.00 0.91 0.38 89 1002.6
20200226162705 2 254 14.5 25.7 0.00 0.94 0.38 89 1002.6
20200226162209 2 271 16.1 25.7 0.00 0.99 0.38 88 1002.6
20200226161733 2 258 14.5 29.0 0.00 0.99 0.38 88 1002.5
20200226161206 2 275 16.1 29.0 0.00 1.04 0.38 89 1002.4
20200226160710 2 254 16.1 27.4 0.00 1.09 0.38 88 1002.4
20200226160207 2 265 16.1 27.4 0.00 1.09 0.38 89 1002.3
20200226155724 2 262 16.1 27.4 0.00 1.09 0.38 88 1002.2
20200226155206 2 239 16.1 25.7 0.00 1.09 0.38 89 1002.2
20200226154706 2 277 16.1 35.4 0.00 1.09 0.38 89 1002.1
20200226154206 2 252 16.1 35.4 0.00 1.09 0.38 88 1002.0
20200226153706 2 243 16.1 25.7 0.00 1.09 0.38 88 1001.9
20200226153206 2 243 16.1 27.4 0.00 1.09 0.38 89 1001.9
20200226152715 2 261 17.7 27.4 0.00 1.09 0.38 89 1001.7
20200226152205 2 247 16.1 29.0 0.00 1.09 0.38 89 1001.7
20200226151706 2 261 16.1 29.0 0.00 1.09 0.38 89 1001.6
20200226151206 2 250 16.1 29.0 0.00 1.09 0.38 89 1001.6
20200226150706 2 277 14.5 32.2 0.00 1.09 0.38 89 1001.5
20200226150206 2 245 14.5 32.2 0.00 1.09 0.38 89 1001.4
20200226145705 2 255 16.1 32.2 0.00 1.09 0.38 89 1001.3
20200226145206 2 257 16.1 27.4 0.00 1.12 0.38 89 1001.3
20200226144707 2 215 17.7 27.4 0.00 1.12 0.38 89 1001.2
20200226144206 2 261 16.1 27.4 0.00 1.12 0.38 89 1001.2
20200226143706 2 245 16.1 27.4 0.00 1.12 0.38 90 1001.0
20200226143206 2 275 16.1 27.4 0.00 1.12 0.38 90 1001.0
20200226142706 2 259 16.1 29.0 0.00 1.12 0.38 90 1000.9
20200226142206 2 234 17.7 29.0 0.00 1.12 0.38 90 1000.9
20200226141706 2 257 16.1 29.0 0.00 1.12 0.38 90 1000.9
20200226141206 2 247 16.1 27.4 0.00 1.12 0.38 91 1000.8
20200226140706 2 262 14.5 27.4 0.00 1.12 0.38 91 1000.8
20200226140206 2 255 12.9 27.4 0.00 1.12 0.38 91 1000.8
20200226135706 2 252 14.5 25.7 0.00 1.12 0.38 91 1000.7
20200226135211 2 243 14.5 25.7 0.00 1.12 0.38 91 1000.7
20200226134708 2 279 14.5 30.6 0.00 1.12 0.38 91 1000.7
20200226134206 2 258 14.5 30.6 0.00 1.12 0.38 91 1000.7
20200226133710 2 259 12.9 30.6 0.00 1.12 0.38 91 1000.6
20200226133209 2 240 12.9 27.4 0.00 1.12 0.38 91 1000.6
20200226132713 2 238 14.5 27.4 0.00 1.12 0.38 91 1000.5
20200226132207 2 265 14.5 27.4 0.00 1.12 0.38 91 1000.5
20200226131710 2 265 14.5 27.4 0.00 1.12 0.38 91 1000.4
20200226131206 2 279 12.9 30.6 0.00 1.12 0.38 91 1000.3
20200226130706 2 261 16.1 30.6 0.00 1.12 0.38 92 1000.2
20200226130206 2 258 17.7 33.8 0.00 1.12 0.38 92 1000.0
20200226125705 2 248 17.7 33.8 0.00 1.12 0.38 92 1000.0
20200226125207 2 257 19.3 33.8 0.00 1.12 0.38 92 999.9
20200226124705 2 258 17.7 30.6 0.00 1.12 0.38 93 999.8
20200226124206 2 250 14.5 29.0 0.00 1.12 0.38 93 999.7
20200226123705 2 264 14.5 29.0 0.00 1.12 0.38 93 999.7
20200226123207 2 244 16.1 29.0 0.00 1.12 0.38 93 999.6
20200226122705 2 253 16.1 29.0 0.03 1.12 0.38 93 999.6